sensor_id;sensor_type;location;lat;lon;timestamp;pressure;altitude;pressure_sealevel;temperature;humidity
72359;BME280;60317;48.880;-0.862;2023-02-15T00:00:16;101350.72;;;17.55;35.59
72359;BME280;60317;48.880;-0.862;2023-02-15T00:02:50;101350.06;;;17.52;35.92
72359;BME280;60317;48.880;-0.862;2023-02-15T00:05:18;101334.94;;;17.51;35.82
72359;BME280;60317;48.880;-0.862;2023-02-15T00:07:45;101340.41;;;17.49;36.10
72359;BME280;60317;48.880;-0.862;2023-02-15T00:10:11;101345.75;;;17.49;35.70
72359;BME280;60317;48.880;-0.862;2023-02-15T00:12:38;101347.38;;;17.52;35.83
72359;BME280;60317;48.880;-0.862;2023-02-15T00:15:05;101343.06;;;17.49;35.89
72359;BME280;60317;48.880;-0.862;2023-02-15T00:17:38;101336.88;;;17.49;35.63
72359;BME280;60317;48.880;-0.862;2023-02-15T00:20:06;101337.81;;;17.48;35.56
72359;BME280;60317;48.880;-0.862;2023-02-15T00:22:34;101338.69;;;17.48;35.72
72359;BME280;60317;48.880;-0.862;2023-02-15T00:25:01;101335.13;;;17.48;35.89
72359;BME280;60317;48.880;-0.862;2023-02-15T00:27:27;101335.13;;;17.48;35.73
72359;BME280;60317;48.880;-0.862;2023-02-15T00:29:54;101327.09;;;17.48;35.90
72359;BME280;60317;48.880;-0.862;2023-02-15T00:32:21;101328.06;;;17.47;35.67
72359;BME280;60317;48.880;-0.862;2023-02-15T00:34:47;101321.59;;;17.51;35.68
72359;BME280;60317;48.880;-0.862;2023-02-15T00:37:14;101323.59;;;17.47;35.50
72359;BME280;60317;48.880;-0.862;2023-02-15T00:39:42;101322.84;;;17.45;35.64
72359;BME280;60317;48.880;-0.862;2023-02-15T00:42:08;101321.09;;;17.44;35.47
72359;BME280;60317;48.880;-0.862;2023-02-15T00:44:35;101320.16;;;17.45;35.42
72359;BME280;60317;48.880;-0.862;2023-02-15T00:47:02;101316.72;;;17.43;35.53
72359;BME280;60317;48.880;-0.862;2023-02-15T00:49:29;101312.22;;;17.44;35.54
72359;BME280;60317;48.880;-0.862;2023-02-15T00:51:55;101313.97;;;17.45;35.67
72359;BME280;60317;48.880;-0.862;2023-02-15T00:54:22;101319.38;;;17.43;35.39
72359;BME280;60317;48.880;-0.862;2023-02-15T00:56:49;101311.28;;;17.45;35.60
72359;BME280;60317;48.880;-0.862;2023-02-15T00:59:16;101305.28;;;17.41;35.39
72359;BME280;60317;48.880;-0.862;2023-02-15T01:01:43;101301.53;;;17.44;35.40
72359;BME280;60317;48.880;-0.862;2023-02-15T01:04:09;101309.66;;;17.42;35.29
72359;BME280;60317;48.880;-0.862;2023-02-15T01:06:36;101305.28;;;17.41;35.36
72359;BME280;60317;48.880;-0.862;2023-02-15T01:09:02;101305.06;;;17.44;35.24
72359;BME280;60317;48.880;-0.862;2023-02-15T01:11:29;101302.50;;;17.42;35.26
72359;BME280;60317;48.880;-0.862;2023-02-15T01:13:57;101301.81;;;17.39;35.41
72359;BME280;60317;48.880;-0.862;2023-02-15T01:16:26;101299.34;;;17.36;35.37
72359;BME280;60317;48.880;-0.862;2023-02-15T01:18:53;101302.78;;;17.38;35.46
72359;BME280;60317;48.880;-0.862;2023-02-15T01:21:21;101302.84;;;17.36;35.22
72359;BME280;60317;48.880;-0.862;2023-02-15T01:23:49;101308.88;;;17.40;35.39
72359;BME280;60317;48.880;-0.862;2023-02-15T01:26:16;101304.97;;;17.46;35.49
72359;BME280;60317;48.880;-0.862;2023-02-15T01:28:43;101306.63;;;17.62;34.89
72359;BME280;60317;48.880;-0.862;2023-02-15T01:31:12;101296.13;;;17.59;34.97
72359;BME280;60317;48.880;-0.862;2023-02-15T01:33:39;101297.66;;;17.63;34.95
72359;BME280;60317;48.880;-0.862;2023-02-15T01:36:21;101307.31;;;17.80;34.48
72359;BME280;60317;48.880;-0.862;2023-02-15T01:38:47;101303.97;;;17.91;34.43
72359;BME280;60317;48.880;-0.862;2023-02-15T01:41:14;101306.47;;;17.94;34.44
72359;BME280;60317;48.880;-0.862;2023-02-15T01:43:41;101297.28;;;17.98;34.17
72359;BME280;60317;48.880;-0.862;2023-02-15T01:46:11;101298.91;;;18.01;34.06
72359;BME280;60317;48.880;-0.862;2023-02-15T01:48:41;101292.50;;;18.03;34.21
72359;BME280;60317;48.880;-0.862;2023-02-15T01:51:10;101298.41;;;18.08;33.99
72359;BME280;60317;48.880;-0.862;2023-02-15T01:53:40;101308.34;;;18.06;33.91
72359;BME280;60317;48.880;-0.862;2023-02-15T01:56:11;101309.19;;;18.07;33.96
72359;BME280;60317;48.880;-0.862;2023-02-15T01:58:40;101301.84;;;18.10;34.12
72359;BME280;60317;48.880;-0.862;2023-02-15T02:01:08;101306.03;;;18.15;34.06
72359;BME280;60317;48.880;-0.862;2023-02-15T02:03:42;101297.72;;;18.19;33.89
72359;BME280;60317;48.880;-0.862;2023-02-15T02:06:11;101290.88;;;18.15;33.74
72359;BME280;60317;48.880;-0.862;2023-02-15T02:08:38;101286.19;;;18.19;33.93
72359;BME280;60317;48.880;-0.862;2023-02-15T02:11:10;101287.69;;;18.23;33.68
72359;BME280;60317;48.880;-0.862;2023-02-15T02:13:36;101291.09;;;18.25;33.69
72359;BME280;60317;48.880;-0.862;2023-02-15T02:16:16;101286.53;;;18.27;33.65
72359;BME280;60317;48.880;-0.862;2023-02-15T02:18:59;101284.81;;;18.26;33.75
72359;BME280;60317;48.880;-0.862;2023-02-15T02:21:50;101282.16;;;18.26;33.80
72359;BME280;60317;48.880;-0.862;2023-02-15T02:24:40;101279.03;;;18.32;33.73
72359;BME280;60317;48.880;-0.862;2023-02-15T02:27:21;101277.44;;;18.29;33.85
72359;BME280;60317;48.880;-0.862;2023-02-15T02:32:52;101267.41;;;18.33;33.78
72359;BME280;60317;48.880;-0.862;2023-02-15T02:35:28;101260.22;;;18.33;33.75
72359;BME280;60317;48.880;-0.862;2023-02-15T02:38:03;101268.59;;;18.42;33.59
72359;BME280;60317;48.880;-0.862;2023-02-15T02:40:52;101252.53;;;18.42;33.46
72359;BME280;60317;48.880;-0.862;2023-02-15T02:43:25;101254.75;;;18.35;33.62
72359;BME280;60317;48.880;-0.862;2023-02-15T02:45:58;101254.75;;;18.35;33.65
72359;BME280;60317;48.880;-0.862;2023-02-15T02:48:31;101234.00;;;18.39;33.70
72359;BME280;60317;48.880;-0.862;2023-02-15T02:50:59;101247.19;;;18.42;33.38
72359;BME280;60317;48.880;-0.862;2023-02-15T02:53:29;101240.78;;;18.44;33.43
72359;BME280;60317;48.880;-0.862;2023-02-15T02:56:01;101242.81;;;18.41;33.42
72359;BME280;60317;48.880;-0.862;2023-02-15T02:58:35;101237.47;;;18.41;33.45
72359;BME280;60317;48.880;-0.862;2023-02-15T03:01:06;101240.13;;;18.41;33.27
72359;BME280;60317;48.880;-0.862;2023-02-15T03:03:38;101245.38;;;18.42;33.28
72359;BME280;60317;48.880;-0.862;2023-02-15T03:06:12;101246.13;;;18.44;33.26
72359;BME280;60317;48.880;-0.862;2023-02-15T03:08:42;101239.72;;;18.47;33.33
72359;BME280;60317;48.880;-0.862;2023-02-15T03:11:31;101237.06;;;18.47;33.30
72359;BME280;60317;48.880;-0.862;2023-02-15T03:14:38;101230.09;;;18.44;33.17
72359;BME280;60317;48.880;-0.862;2023-02-15T03:17:12;101225.25;;;18.49;33.24
72359;BME280;60317;48.880;-0.862;2023-02-15T03:19:43;101235.53;;;18.43;33.31
72359;BME280;60317;48.880;-0.862;2023-02-15T03:22:14;101222.91;;;18.45;33.31
72359;BME280;60317;48.880;-0.862;2023-02-15T03:24:43;101230.41;;;18.52;32.94
72359;BME280;60317;48.880;-0.862;2023-02-15T03:27:13;101231.50;;;18.50;33.21
72359;BME280;60317;48.880;-0.862;2023-02-15T03:29:41;101226.03;;;18.51;32.95
72359;BME280;60317;48.880;-0.862;2023-02-15T03:32:10;101228.06;;;18.48;33.11
72359;BME280;60317;48.880;-0.862;2023-02-15T03:34:37;101228.19;;;18.46;32.99
72359;BME280;60317;48.880;-0.862;2023-02-15T03:37:10;101223.16;;;18.54;33.26
72359;BME280;60317;48.880;-0.862;2023-02-15T03:39:42;101216.19;;;18.52;33.04
72359;BME280;60317;48.880;-0.862;2023-02-15T03:42:13;101213.41;;;18.53;32.88
72359;BME280;60317;48.880;-0.862;2023-02-15T03:44:49;101216.94;;;18.54;33.29
72359;BME280;60317;48.880;-0.862;2023-02-15T03:47:19;101217.69;;;18.56;33.23
72359;BME280;60317;48.880;-0.862;2023-02-15T03:49:51;101209.56;;;18.57;33.14
72359;BME280;60317;48.880;-0.862;2023-02-15T03:52:21;101216.94;;;18.54;33.30
72359;BME280;60317;48.880;-0.862;2023-02-15T03:54:51;101216.63;;;18.58;32.95
72359;BME280;60317;48.880;-0.862;2023-02-15T03:57:21;101221.59;;;18.65;32.85
72359;BME280;60317;48.880;-0.862;2023-02-15T03:59:48;101219.75;;;18.65;32.76
72359;BME280;60317;48.880;-0.862;2023-02-15T04:02:20;101211.94;;;18.62;32.90
72359;BME280;60317;48.880;-0.862;2023-02-15T04:04:48;101209.78;;;18.54;33.27
72359;BME280;60317;48.880;-0.862;2023-02-15T04:07:14;101214.94;;;18.57;33.05
72359;BME280;60317;48.880;-0.862;2023-02-15T04:09:42;101210.22;;;18.61;32.97
72359;BME280;60317;48.880;-0.862;2023-02-15T04:12:09;101202.28;;;18.59;33.00
72359;BME280;60317;48.880;-0.862;2023-02-15T04:14:36;101216.63;;;18.58;32.71
72359;BME280;60317;48.880;-0.862;2023-02-15T04:17:05;101208.59;;;18.58;32.82
72359;BME280;60317;48.880;-0.862;2023-02-15T04:19:31;101213.94;;;18.58;32.84
72359;BME280;60317;48.880;-0.862;2023-02-15T04:21:58;101217.16;;;18.64;32.72
72359;BME280;60317;48.880;-0.862;2023-02-15T04:24:58;101218.78;;;18.66;32.82
72359;BME280;60317;48.880;-0.862;2023-02-15T04:30:08;101209.44;;;18.59;32.59
72359;BME280;60317;48.880;-0.862;2023-02-15T04:32:36;101206.38;;;18.65;32.64
72359;BME280;60317;48.880;-0.862;2023-02-15T04:35:03;101211.22;;;18.73;32.67
72359;BME280;60317;48.880;-0.862;2023-02-15T04:37:30;101210.25;;;18.74;32.48
72359;BME280;60317;48.880;-0.862;2023-02-15T04:39:58;101208.19;;;18.65;32.81
72359;BME280;60317;48.880;-0.862;2023-02-15T04:42:24;101196.41;;;18.67;32.64
72359;BME280;60317;48.880;-0.862;2023-02-15T04:44:51;101196.50;;;18.66;32.59
72359;BME280;60317;48.880;-0.862;2023-02-15T04:47:17;101197.97;;;18.71;32.52
72359;BME280;60317;48.880;-0.862;2023-02-15T04:49:44;101197.16;;;18.69;32.63
72359;BME280;60317;48.880;-0.862;2023-02-15T04:52:11;101200.69;;;18.70;32.43
72359;BME280;60317;48.880;-0.862;2023-02-15T04:54:37;101206.44;;;18.78;32.53
72359;BME280;60317;48.880;-0.862;2023-02-15T04:57:05;101210.81;;;18.79;32.43
72359;BME280;60317;48.880;-0.862;2023-02-15T04:59:32;101208.56;;;18.73;32.42
72359;BME280;60317;48.880;-0.862;2023-02-15T05:01:59;101211.22;;;18.73;32.45
72359;BME280;60317;48.880;-0.862;2023-02-15T05:04:26;101218.22;;;18.75;32.37
72359;BME280;60317;48.880;-0.862;2023-02-15T05:06:52;101216.59;;;18.73;32.55
72359;BME280;60317;48.880;-0.862;2023-02-15T05:09:19;101202.34;;;18.72;32.34
72359;BME280;60317;48.880;-0.862;2023-02-15T05:11:45;101204.91;;;18.74;32.27
72359;BME280;60317;48.880;-0.862;2023-02-15T05:14:13;101193.25;;;18.75;32.51
72359;BME280;60317;48.880;-0.862;2023-02-15T05:16:40;101203.63;;;18.79;32.31
72359;BME280;60317;48.880;-0.862;2023-02-15T05:19:07;101199.56;;;18.74;32.45
72359;BME280;60317;48.880;-0.862;2023-02-15T05:21:33;101197.84;;;18.73;32.48
72359;BME280;60317;48.880;-0.862;2023-02-15T05:24:00;101191.31;;;18.77;32.27
72359;BME280;60317;48.880;-0.862;2023-02-15T05:26:27;101193.13;;;18.76;32.54
72359;BME280;60317;48.880;-0.862;2023-02-15T05:28:53;101201.38;;;18.73;32.42
72359;BME280;60317;48.880;-0.862;2023-02-15T05:31:21;101198.69;;;18.73;32.39
72359;BME280;60317;48.880;-0.862;2023-02-15T05:33:48;101207.38;;;18.77;32.43
72359;BME280;60317;48.880;-0.862;2023-02-15T05:36:15;101205.56;;;18.77;32.32
72359;BME280;60317;48.880;-0.862;2023-02-15T05:38:41;101205.56;;;18.77;32.13
72359;BME280;60317;48.880;-0.862;2023-02-15T05:41:09;101211.78;;;18.78;32.34
72359;BME280;60317;48.880;-0.862;2023-02-15T05:43:36;101216.91;;;18.81;32.16
72359;BME280;60317;48.880;-0.862;2023-02-15T05:46:04;101210.72;;;18.80;32.23
72359;BME280;60317;48.880;-0.862;2023-02-15T05:48:33;101209.66;;;18.83;32.22
72359;BME280;60317;48.880;-0.862;2023-02-15T05:51:02;101215.97;;;18.82;32.17
72359;BME280;60317;48.880;-0.862;2023-02-15T05:53:30;101214.25;;;18.81;32.36
72359;BME280;60317;48.880;-0.862;2023-02-15T05:55:57;101211.03;;;18.76;32.22
72359;BME280;60317;48.880;-0.862;2023-02-15T05:58:25;101209.97;;;18.78;32.24
72359;BME280;60317;48.880;-0.862;2023-02-15T06:00:51;101215.84;;;18.83;32.20
72359;BME280;60317;48.880;-0.862;2023-02-15T06:03:18;101217.88;;;18.80;32.21
72359;BME280;60317;48.880;-0.862;2023-02-15T06:05:46;101219.94;;;18.89;31.98
72359;BME280;60317;48.880;-0.862;2023-02-15T06:08:13;101223.03;;;18.83;32.16
72359;BME280;60317;48.880;-0.862;2023-02-15T06:10:39;101222.19;;;18.82;32.16
72359;BME280;60317;48.880;-0.862;2023-02-15T06:13:06;101224.66;;;18.86;32.15
72359;BME280;60317;48.880;-0.862;2023-02-15T06:15:33;101222.72;;;18.88;32.16
72359;BME280;60317;48.880;-0.862;2023-02-15T06:18:00;101221.84;;;18.87;32.15
72359;BME280;60317;48.880;-0.862;2023-02-15T06:20:26;101226.56;;;18.83;32.16
72359;BME280;60317;48.880;-0.862;2023-02-15T06:22:54;101230.31;;;18.81;32.10
72359;BME280;60317;48.880;-0.862;2023-02-15T06:25:20;101230.88;;;18.86;31.99
72359;BME280;60317;48.880;-0.862;2023-02-15T06:27:47;101229.16;;;18.85;32.26
72359;BME280;60317;48.880;-0.862;2023-02-15T06:30:14;101222.06;;;18.84;32.07
72359;BME280;60317;48.880;-0.862;2023-02-15T06:32:40;101220.56;;;18.80;32.25
72359;BME280;60317;48.880;-0.862;2023-02-15T06:35:07;101230.53;;;18.78;32.13
72359;BME280;60317;48.880;-0.862;2023-02-15T06:37:34;101223.44;;;18.77;32.08
72359;BME280;60317;48.880;-0.862;2023-02-15T06:40:02;101222.38;;;18.79;32.08
72359;BME280;60317;48.880;-0.862;2023-02-15T06:42:29;101220.25;;;18.84;32.25
72359;BME280;60317;48.880;-0.862;2023-02-15T06:44:56;101220.03;;;18.88;32.01
72359;BME280;60317;48.880;-0.862;2023-02-15T06:47:22;101217.88;;;18.80;32.05
72359;BME280;60317;48.880;-0.862;2023-02-15T06:49:49;101218.31;;;18.87;32.01
72359;BME280;60317;48.880;-0.862;2023-02-15T06:52:15;101226.88;;;18.79;32.06
72359;BME280;60317;48.880;-0.862;2023-02-15T06:54:42;101224.88;;;18.82;32.02
72359;BME280;60317;48.880;-0.862;2023-02-15T06:59:38;101232.03;;;18.82;32.15
72359;BME280;60317;48.880;-0.862;2023-02-15T07:02:23;101237.50;;;18.80;31.90
72359;BME280;60317;48.880;-0.862;2023-02-15T07:04:50;101229.56;;;18.79;31.83
72359;BME280;60317;48.880;-0.862;2023-02-15T07:07:17;101232.25;;;18.79;32.22
72359;BME280;60317;48.880;-0.862;2023-02-15T07:09:43;101233.09;;;18.79;32.13
72359;BME280;60317;48.880;-0.862;2023-02-15T07:12:10;101233.63;;;18.84;31.95
72359;BME280;60317;48.880;-0.862;2023-02-15T07:14:37;101232.38;;;18.90;31.69
72359;BME280;60317;48.880;-0.862;2023-02-15T07:17:04;101237.94;;;18.87;31.96
72359;BME280;60317;48.880;-0.862;2023-02-15T07:19:40;101245.44;;;18.82;31.88
72359;BME280;60317;48.880;-0.862;2023-02-15T07:22:06;101235.78;;;18.79;32.08
72359;BME280;60317;48.880;-0.862;2023-02-15T07:24:33;101240.28;;;18.79;31.96
72359;BME280;60317;48.880;-0.862;2023-02-15T07:26:59;101241.13;;;18.79;31.88
72359;BME280;60317;48.880;-0.862;2023-02-15T07:29:26;101247.69;;;18.88;31.62
72359;BME280;60317;48.880;-0.862;2023-02-15T07:31:54;101248.44;;;18.90;31.76
72359;BME280;60317;48.880;-0.862;2023-02-15T07:34:21;101254.78;;;18.89;31.69
72359;BME280;60317;48.880;-0.862;2023-02-15T07:36:50;101249.41;;;18.89;31.65
72359;BME280;60317;48.880;-0.862;2023-02-15T07:39:17;101255.06;;;18.84;31.84
72359;BME280;60317;48.880;-0.862;2023-02-15T07:41:44;101254.22;;;18.84;31.69
72359;BME280;60317;48.880;-0.862;2023-02-15T07:44:16;101254.00;;;18.87;31.73
72359;BME280;60317;48.880;-0.862;2023-02-15T07:46:42;101264.91;;;18.84;31.79
72359;BME280;60317;48.880;-0.862;2023-02-15T07:49:10;101256.16;;;18.82;31.81
72359;BME280;60317;48.880;-0.862;2023-02-15T07:54:22;101270.06;;;18.87;31.64
72359;BME280;60317;48.880;-0.862;2023-02-15T07:56:55;101261.94;;;18.89;31.62
72359;BME280;60317;48.880;-0.862;2023-02-15T07:59:22;101257.25;;;18.92;31.61
72359;BME280;60317;48.880;-0.862;2023-02-15T08:01:55;101245.75;;;18.90;31.74
72359;BME280;60317;48.880;-0.862;2023-02-15T08:09:53;101254.78;;;18.89;31.76
72359;BME280;60317;48.880;-0.862;2023-02-15T08:12:39;101251.66;;;18.82;31.91
72359;BME280;60317;48.880;-0.862;2023-02-15T08:15:12;101262.34;;;18.82;31.97
72359;BME280;60317;48.880;-0.862;2023-02-15T08:20:16;101259.03;;;18.79;31.85
72359;BME280;60317;48.880;-0.862;2023-02-15T08:31:41;101266.22;;;18.78;31.85
72359;BME280;60317;48.880;-0.862;2023-02-15T08:34:17;101260.00;;;18.78;31.98
72359;BME280;60317;48.880;-0.862;2023-02-15T08:36:51;101262.88;;;18.75;31.92
72359;BME280;60317;48.880;-0.862;2023-02-15T08:39:18;101256.06;;;18.69;32.22
72359;BME280;60317;48.880;-0.862;2023-02-15T08:41:45;101271.78;;;18.75;32.06
72359;BME280;60317;48.880;-0.862;2023-02-15T08:44:32;101263.66;;;18.63;32.11
72359;BME280;60317;48.880;-0.862;2023-02-15T08:46:59;101269.22;;;18.59;32.24
72359;BME280;60317;48.880;-0.862;2023-02-15T08:49:26;101269.41;;;18.56;32.14
72359;BME280;60317;48.880;-0.862;2023-02-15T08:51:52;101273.06;;;18.55;32.33
72359;BME280;60317;48.880;-0.862;2023-02-15T08:54:20;101261.59;;;18.53;32.29
72359;BME280;60317;48.880;-0.862;2023-02-15T08:56:47;101266.19;;;18.51;32.54
72359;BME280;60317;48.880;-0.862;2023-02-15T08:59:15;101267.25;;;18.76;32.12
72359;BME280;60317;48.880;-0.862;2023-02-15T09:01:43;101275.13;;;18.65;32.12
72359;BME280;60317;48.880;-0.862;2023-02-15T09:04:11;101283.03;;;18.66;32.09
72359;BME280;60317;48.880;-0.862;2023-02-15T09:06:38;101273.38;;;18.64;32.06
72359;BME280;60317;48.880;-0.862;2023-02-15T09:09:06;101271.00;;;18.46;32.44
72359;BME280;60317;48.880;-0.862;2023-02-15T09:11:34;101271.09;;;18.45;32.45
72359;BME280;60317;48.880;-0.862;2023-02-15T09:14:03;101289.81;;;18.45;32.48
72359;BME280;60317;48.880;-0.862;2023-02-15T09:16:32;101284.66;;;18.42;32.33
72359;BME280;60317;48.880;-0.862;2023-02-15T09:19:00;101284.66;;;18.42;32.55
72359;BME280;60317;48.880;-0.862;2023-02-15T09:21:28;101293.00;;;18.37;32.70
72359;BME280;60317;48.880;-0.862;2023-02-15T09:23:56;101298.56;;;18.34;32.85
72359;BME280;60317;48.880;-0.862;2023-02-15T09:26:24;101300.06;;;18.38;32.63
72359;BME280;60317;48.880;-0.862;2023-02-15T09:28:52;101296.00;;;18.32;32.83
72359;BME280;60317;48.880;-0.862;2023-02-15T09:31:20;101283.34;;;18.34;32.83
72359;BME280;60317;48.880;-0.862;2023-02-15T09:33:48;101287.97;;;18.32;33.00
72359;BME280;60317;48.880;-0.862;2023-02-15T09:36:18;101282.88;;;18.28;32.85
72359;BME280;60317;48.880;-0.862;2023-02-15T09:38:47;101282.81;;;18.29;32.99
72359;BME280;60317;48.880;-0.862;2023-02-15T09:41:26;101281.06;;;18.28;33.21
72359;BME280;60317;48.880;-0.862;2023-02-15T09:44:03;101273.91;;;18.29;33.04
72359;BME280;60317;48.880;-0.862;2023-02-15T09:46:42;101284.63;;;18.29;33.06
72359;BME280;60317;48.880;-0.862;2023-02-15T09:52:33;101281.19;;;18.27;33.14
72359;BME280;60317;48.880;-0.862;2023-02-15T09:58:17;101285.88;;;18.23;33.32
72359;BME280;60317;48.880;-0.862;2023-02-15T10:00:52;101290.56;;;18.20;33.57
72359;BME280;60317;48.880;-0.862;2023-02-15T10:03:33;101292.19;;;18.22;33.51
72359;BME280;60317;48.880;-0.862;2023-02-15T10:06:22;101288.66;;;18.22;33.34
72359;BME280;60317;48.880;-0.862;2023-02-15T10:09:02;101288.66;;;18.22;33.46
72359;BME280;60317;48.880;-0.862;2023-02-15T10:11:40;101297.72;;;18.19;33.67
72359;BME280;60317;48.880;-0.862;2023-02-15T10:14:25;101300.41;;;18.19;33.76
72359;BME280;60317;48.880;-0.862;2023-02-15T10:17:02;101303.09;;;18.19;33.77
72359;BME280;60317;48.880;-0.862;2023-02-15T10:19:39;101297.94;;;18.16;33.69
72359;BME280;60317;48.880;-0.862;2023-02-15T10:22:17;101301.47;;;18.17;33.87
72359;BME280;60317;48.880;-0.862;2023-02-15T10:24:58;101305.19;;;18.14;33.96
72359;BME280;60317;48.880;-0.862;2023-02-15T10:27:44;101317.63;;;18.15;33.97
72359;BME280;60317;48.880;-0.862;2023-02-15T10:35:45;101304.31;;;18.13;34.00
72359;BME280;60317;48.880;-0.862;2023-02-15T10:38:24;101304.50;;;18.10;34.05
72359;BME280;60317;48.880;-0.862;2023-02-15T10:41:01;101298.22;;;18.11;34.19
72359;BME280;60317;48.880;-0.862;2023-02-15T10:43:44;101290.22;;;18.11;34.34
72359;BME280;60317;48.880;-0.862;2023-02-15T10:46:23;101297.56;;;18.08;34.31
72359;BME280;60317;48.880;-0.862;2023-02-15T10:52:06;101300.44;;;18.05;34.45
72359;BME280;60317;48.880;-0.862;2023-02-15T10:55:13;101313.69;;;18.06;34.44
72359;BME280;60317;48.880;-0.862;2023-02-15T11:01:04;101321.72;;;18.06;34.58
72359;BME280;60317;48.880;-0.862;2023-02-15T11:03:40;101319.03;;;18.06;34.44
72359;BME280;60317;48.880;-0.862;2023-02-15T11:06:14;101310.16;;;18.06;34.42
72359;BME280;60317;48.880;-0.862;2023-02-15T11:22:32;101305.00;;;18.03;34.93
72359;BME280;60317;48.880;-0.862;2023-02-15T11:25:00;101308.66;;;18.02;34.97
72359;BME280;60317;48.880;-0.862;2023-02-15T11:27:30;101307.78;;;18.01;34.96
72359;BME280;60317;48.880;-0.862;2023-02-15T11:38:15;101297.94;;;18.02;34.92
72359;BME280;60317;48.880;-0.862;2023-02-15T11:41:13;101295.28;;;18.02;34.99
72359;BME280;60317;48.880;-0.862;2023-02-15T11:44:04;101277.53;;;18.01;35.37
72359;BME280;60317;48.880;-0.862;2023-02-15T11:46:39;101290.78;;;18.02;35.04
72359;BME280;60317;48.880;-0.862;2023-02-15T11:49:14;101287.25;;;18.02;35.27
72359;BME280;60317;48.880;-0.862;2023-02-15T11:51:53;101280.19;;;18.01;35.31
72359;BME280;60317;48.880;-0.862;2023-02-15T11:54:25;101269.50;;;18.01;35.24
72359;BME280;60317;48.880;-0.862;2023-02-15T11:59:42;101257.16;;;17.98;35.45
72359;BME280;60317;48.880;-0.862;2023-02-15T12:02:19;101251.91;;;17.97;35.54
72359;BME280;60317;48.880;-0.862;2023-02-15T12:04:49;101256.00;;;18.02;35.31
72359;BME280;60317;48.880;-0.862;2023-02-15T12:07:22;101246.34;;;18.00;35.54
72359;BME280;60317;48.880;-0.862;2023-02-15T12:09:55;101251.91;;;17.97;35.34
72359;BME280;60317;48.880;-0.862;2023-02-15T12:12:27;101249.13;;;17.98;35.39
72359;BME280;60317;48.880;-0.862;2023-02-15T12:14:55;101240.34;;;17.96;35.68
72359;BME280;60317;48.880;-0.862;2023-02-15T12:17:24;101237.59;;;17.98;35.47
72359;BME280;60317;48.880;-0.862;2023-02-15T12:19:55;101240.34;;;17.96;35.55
72359;BME280;60317;48.880;-0.862;2023-02-15T12:22:24;101235.00;;;17.96;35.49
72359;BME280;60317;48.880;-0.862;2023-02-15T12:24:55;101237.66;;;17.96;35.62
72359;BME280;60317;48.880;-0.862;2023-02-15T12:27:25;101242.94;;;17.98;35.49
72359;BME280;60317;48.880;-0.862;2023-02-15T12:29:56;101251.63;;;18.01;35.52
72359;BME280;60317;48.880;-0.862;2023-02-15T12:32:25;101243.59;;;18.01;35.51
72359;BME280;60317;48.880;-0.862;2023-02-15T12:38:01;101232.72;;;18.04;35.47
72359;BME280;60317;48.880;-0.862;2023-02-15T12:40:37;101233.56;;;18.05;35.54
72359;BME280;60317;48.880;-0.862;2023-02-15T12:43:04;101232.59;;;18.06;35.44
72359;BME280;60317;48.880;-0.862;2023-02-15T12:45:36;101232.59;;;18.06;35.60
72359;BME280;60317;48.880;-0.862;2023-02-15T12:48:14;101228.09;;;18.06;35.77
72359;BME280;60317;48.880;-0.862;2023-02-15T12:50:42;101231.94;;;18.02;35.70
72359;BME280;60317;48.880;-0.862;2023-02-15T12:53:21;101228.28;;;18.03;35.70
72359;BME280;60317;48.880;-0.862;2023-02-15T12:55:52;101230.03;;;18.04;35.60
72359;BME280;60317;48.880;-0.862;2023-02-15T12:58:20;101233.56;;;18.05;35.54
72359;BME280;60317;48.880;-0.862;2023-02-15T13:06:01;101221.59;;;18.10;35.58
72359;BME280;60317;48.880;-0.862;2023-02-15T13:08:39;101218.16;;;18.08;35.57
72359;BME280;60317;48.880;-0.862;2023-02-15T13:11:25;101214.53;;;18.09;35.64
72359;BME280;60317;48.880;-0.862;2023-02-15T13:13:54;101212.91;;;18.07;35.66
72359;BME280;60317;48.880;-0.862;2023-02-15T13:16:30;101210.22;;;18.07;35.68
72359;BME280;60317;48.880;-0.862;2023-02-15T13:21:36;101213.00;;;18.05;35.90
72359;BME280;60317;48.880;-0.862;2023-02-15T13:27:18;101195.91;;;18.08;35.82
72359;BME280;60317;48.880;-0.862;2023-02-15T13:29:50;101191.50;;;18.07;35.92
72359;BME280;60317;48.880;-0.862;2023-02-15T13:32:26;101202.19;;;18.07;36.04
72359;BME280;60317;48.880;-0.862;2023-02-15T13:37:44;101201.47;;;18.05;35.84
72359;BME280;60317;48.880;-0.862;2023-02-15T13:40:37;101197.47;;;17.98;36.14
72359;BME280;60317;48.880;-0.862;2023-02-15T13:43:21;101202.81;;;17.98;36.25
72359;BME280;60317;48.880;-0.862;2023-02-15T13:46:00;101189.03;;;18.04;36.01
72359;BME280;60317;48.880;-0.862;2023-02-15T13:48:41;101183.91;;;18.01;36.19
72359;BME280;60317;48.880;-0.862;2023-02-15T13:51:21;101176.81;;;18.00;36.35
72359;BME280;60317;48.880;-0.862;2023-02-15T13:54:06;101180.84;;;17.93;36.60
72359;BME280;60317;48.880;-0.862;2023-02-15T13:56:47;101169.94;;;17.96;36.23
72359;BME280;60317;48.880;-0.862;2023-02-15T13:59:35;101162.59;;;17.99;36.22
72359;BME280;60317;48.880;-0.862;2023-02-15T14:02:23;101161.63;;;18.00;36.22
72359;BME280;60317;48.880;-0.862;2023-02-15T14:05:10;101158.66;;;18.05;35.94
72359;BME280;60317;48.880;-0.862;2023-02-15T14:07:50;101150.53;;;18.06;35.97
72359;BME280;60317;48.880;-0.862;2023-02-15T14:10:29;101158.66;;;18.05;36.27
72359;BME280;60317;48.880;-0.862;2023-02-15T14:15:54;101154.34;;;18.02;36.05
72359;BME280;60317;48.880;-0.862;2023-02-15T14:18:29;101157.50;;;18.09;35.79
72359;BME280;60317;48.880;-0.862;2023-02-15T14:21:05;101149.78;;;18.04;36.13
72359;BME280;60317;48.880;-0.862;2023-02-15T14:23:44;101141.31;;;17.98;36.28
72359;BME280;60317;48.880;-0.862;2023-02-15T14:26:21;101147.50;;;17.98;36.07
72359;BME280;60317;48.880;-0.862;2023-02-15T14:29:01;101152.53;;;18.03;36.13
72359;BME280;60317;48.880;-0.862;2023-02-15T14:31:34;101156.38;;;17.99;36.25